Time;durP1;ratioP1;P1;durP2;ratioP2;P2;SDS_P1;SDS_P2;PMS_P1;PMS_P2;Temp;Humidity;BMP_temperature;BMP_pressure;BME280_temperature;BME280_humidity;BME280_pressure;Samples;Min_cycle;Max_cycle;Signal;HPM_P1;HPM_P2
2022/05/31 00:02:25;;;;;;;;;2.67;2.67;;;;;31.17;19.46;100714.47;5096474;27;48478;-79
2022/05/31 00:04:51;;;;;;;;;2.67;2.67;;;;;31.15;19.15;100694.53;5097964;27;45474;-79
2022/05/31 00:07:18;;;;;;;;;3.00;3.00;;;;;31.12;19.27;100685.56;5097997;27;45436;-79
2022/05/31 00:09:44;;;;;;;;;1.33;1.33;;;;;31.28;19.24;100714.63;5098097;27;45528;-79
2022/05/31 00:12:10;;;;;;;;;2.00;2.00;;;;;31.21;18.88;100705.06;5097765;27;46667;-79
2022/05/31 00:14:36;;;;;;;;;2.00;2.00;;;;;31.21;18.98;100705.97;5097417;27;45449;-79
2022/05/31 00:17:02;;;;;;;;;2.33;2.33;;;;;31.08;18.63;100692.22;5097727;27;45455;-79
2022/05/31 00:19:27;;;;;;;;;2.67;1.67;;;;;31.10;19.34;100687.50;5097421;27;45319;-79
2022/05/31 00:22:17;;;;;;;;;2.67;2.33;;;;;31.04;18.87;100660.53;5096343;27;47222;-78
2022/05/31 00:24:43;;;;;;;;;2.00;2.00;;;;;31.23;18.75;100706.72;5097775;27;45471;-79
2022/05/31 00:27:11;;;;;;;;;4.00;3.00;;;;;31.21;18.86;100696.84;5097884;27;45483;-78
2022/05/31 00:29:36;;;;;;;;;3.67;2.33;;;;;31.17;19.07;100692.56;5097033;27;45547;-78
2022/05/31 00:32:06;;;;;;;;;2.67;2.67;;;;;31.04;19.37;100693.44;5097443;27;46568;-79
2022/05/31 00:34:33;;;;;;;;;2.00;2.00;;;;;31.05;18.90;100694.28;5097412;27;45416;-79
2022/05/31 00:37:00;;;;;;;;;5.00;3.67;;;;;30.98;19.13;100687.44;5097694;27;45546;-79
2022/05/31 00:39:25;;;;;;;;;2.33;2.33;;;;;30.73;19.74;100681.78;5097243;27;45457;-78
2022/05/31 00:42:05;;;;;;;;;3.00;2.33;;;;;30.74;19.50;100677.16;5097624;27;46454;-79
2022/05/31 00:44:32;;;;;;;;;2.67;2.67;;;;;30.75;19.41;100687.13;5096927;27;45496;-79
2022/05/31 00:47:00;;;;;;;;;4.00;4.00;;;;;30.69;19.70;100693.00;5097690;27;45491;-78
2022/05/31 00:49:28;;;;;;;;;3.00;3.00;;;;;30.51;19.94;100662.28;5095733;27;45505;-78
2022/05/31 00:51:56;;;;;;;;;1.67;1.67;;;;;30.69;19.89;100699.38;5097463;27;45384;-78
2022/05/31 00:54:26;;;;;;;;;3.00;3.00;;;;;30.63;19.58;100694.28;5095716;27;45219;-79
2022/05/31 00:56:53;;;;;;;;;4.33;3.00;;;;;30.63;19.70;100694.28;5097224;27;45472;-79
2022/05/31 00:59:31;;;;;;;;;3.00;3.00;;;;;30.58;19.75;100680.06;5096789;27;45491;-79
2022/05/31 01:01:57;;;;;;;;;3.67;3.00;;;;;30.56;19.89;100679.25;5097183;27;45504;-79
2022/05/31 01:04:36;;;;;;;;;3.00;2.67;;;;;30.61;19.60;100696.28;5096933;27;45334;-79
2022/05/31 01:07:02;;;;;;;;;3.00;3.00;;;;;30.67;19.51;100676.69;5095844;27;45441;-79
2022/05/31 01:09:29;;;;;;;;;2.00;2.00;;;;;30.72;19.84;100693.69;5096840;27;45485;-79
2022/05/31 01:11:57;;;;;;;;;3.00;3.00;;;;;30.61;19.59;100683.44;5096522;27;46427;-79
2022/05/31 01:14:22;;;;;;;;;3.00;3.00;;;;;30.68;19.46;100685.78;5095485;27;45287;-79
2022/05/31 01:17:03;;;;;;;;;3.67;3.67;;;;;30.78;19.56;100693.28;5096787;27;45396;-79
2022/05/31 01:22:16;;;;;;;;;2.67;2.33;;;;;30.65;19.13;100675.91;5096644;27;45311;-79
2022/05/31 01:24:56;;;;;;;;;2.00;2.00;;;;;30.74;19.56;100686.25;5096510;27;45357;-79
2022/05/31 01:27:32;;;;;;;;;2.33;2.33;;;;;30.84;19.39;100691.13;5096411;27;45476;-79
2022/05/31 01:30:00;;;;;;;;;3.00;3.00;;;;;30.79;19.21;100684.09;5096879;27;45407;-79
2022/05/31 01:32:25;;;;;;;;;2.67;2.67;;;;;30.75;19.05;100681.66;5112258;27;48664;-79
2022/05/31 01:35:01;;;;;;;;;3.00;3.00;;;;;30.87;19.05;100690.91;5096390;27;45495;-79
2022/05/31 01:37:52;;;;;;;;;4.00;3.00;;;;;30.91;19.21;100696.06;5096623;27;45387;-79
2022/05/31 01:40:32;;;;;;;;;2.33;2.33;;;;;30.72;19.17;100682.75;5096573;27;45502;-79
2022/05/31 01:42:57;;;;;;;;;3.00;3.00;;;;;30.59;18.88;100660.78;5095970;27;45396;-79
2022/05/31 01:45:26;;;;;;;;;2.00;2.00;;;;;30.72;19.14;100665.44;5096157;27;45411;-79
2022/05/31 01:48:00;;;;;;;;;3.00;2.00;;;;;30.83;19.43;100694.81;5095943;27;45366;-79
2022/05/31 01:50:26;;;;;;;;;3.67;3.00;;;;;30.49;19.44;100675.19;5095053;27;45582;-79
2022/05/31 01:52:52;;;;;;;;;3.00;3.00;;;;;30.57;19.32;100691.97;5096246;27;46168;-79
2022/05/31 01:55:19;;;;;;;;;4.00;2.00;;;;;30.57;19.64;100670.94;5096181;27;45331;-79
2022/05/31 01:57:50;;;;;;;;;3.00;2.00;;;;;30.72;19.52;100681.88;5096388;27;45382;-79
2022/05/31 02:00:17;;;;;;;;;4.00;4.00;;;;;30.69;19.81;100672.00;5094900;27;45501;-79
2022/05/31 02:02:47;;;;;;;;;2.00;2.00;;;;;30.85;19.75;100687.41;5096012;27;46223;-79
2022/05/31 02:05:12;;;;;;;;;3.00;3.00;;;;;30.65;19.90;100659.50;5096190;27;45388;-79
2022/05/31 02:07:38;;;;;;;;;3.00;3.00;;;;;30.86;19.39;100700.09;5095580;27;45479;-79
2022/05/31 02:10:03;;;;;;;;;3.33;3.33;;;;;30.77;19.82;100699.75;5094597;27;45893;-79
2022/05/31 02:12:30;;;;;;;;;3.67;3.67;;;;;30.66;19.58;100688.66;5095806;27;45404;-78
2022/05/31 02:14:56;;;;;;;;;3.00;3.00;;;;;30.72;19.45;100704.66;5096034;27;45341;-79
2022/05/31 02:17:22;;;;;;;;;3.00;3.00;;;;;30.65;19.54;100684.13;5095769;27;45352;-79
2022/05/31 02:19:48;;;;;;;;;3.00;3.00;;;;;30.70;19.50;100673.72;5095802;27;45410;-79
2022/05/31 02:22:15;;;;;;;;;3.00;3.00;;;;;30.85;19.60;100693.75;5095873;27;45577;-79
2022/05/31 02:24:41;;;;;;;;;2.67;2.67;;;;;30.92;19.14;100703.31;5094162;27;45991;-79
2022/05/31 02:27:08;;;;;;;;;3.00;3.00;;;;;30.99;19.29;100701.03;5095850;27;45303;-79
2022/05/31 02:29:36;;;;;;;;;2.00;2.00;;;;;30.76;18.90;100675.22;5095588;27;45544;-79
2022/05/31 02:32:04;;;;;;;;;3.00;3.00;;;;;30.58;19.28;100660.88;5095588;27;46740;-79
2022/05/31 02:34:37;;;;;;;;;2.00;2.00;;;;;30.94;19.01;100701.34;5095681;27;45379;-79
2022/05/31 02:37:03;;;;;;;;;2.00;1.00;;;;;30.79;19.21;100678.59;5095879;27;45471;-79
2022/05/31 02:39:29;;;;;;;;;3.00;3.00;;;;;31.01;18.63;100714.63;5094115;27;45385;-79
2022/05/31 02:41:56;;;;;;;;;2.00;2.00;;;;;30.91;19.12;100708.88;5095433;27;45345;-79
2022/05/31 02:44:22;;;;;;;;;3.33;2.00;;;;;30.72;19.03;100687.34;5095494;27;45364;-79
2022/05/31 02:46:47;;;;;;;;;2.67;2.67;;;;;30.77;19.01;100688.81;5095645;27;45463;-79
2022/05/31 02:49:13;;;;;;;;;3.00;3.00;;;;;30.71;18.97;100670.03;5095483;27;45533;-79
2022/05/31 02:51:41;;;;;;;;;3.67;3.00;;;;;30.85;19.09;100699.22;5095080;27;45559;-80
2022/05/31 02:54:10;;;;;;;;;2.00;2.00;;;;;30.84;18.73;100689.25;5095293;27;45396;-79
2022/05/31 02:56:35;;;;;;;;;1.00;1.00;;;;;30.97;19.06;100705.75;5095526;27;45520;-79
2022/05/31 02:59:01;;;;;;;;;3.00;3.00;;;;;30.88;18.99;100698.16;5095517;27;45408;-79
2022/05/31 03:01:29;;;;;;;;;3.00;3.00;;;;;31.01;19.38;100699.09;5098485;27;45526;-79
2022/05/31 03:03:54;;;;;;;;;3.67;2.67;;;;;30.91;19.48;100676.00;5114686;27;45374;-79
2022/05/31 03:06:21;;;;;;;;;2.33;2.33;;;;;31.02;19.84;100703.59;5114957;27;45453;-79
2022/05/31 03:08:46;;;;;;;;;3.00;3.00;;;;;30.87;19.74;100675.38;5098533;27;45412;-78
2022/05/31 03:11:17;;;;;;;;;3.33;3.00;;;;;31.00;19.72;100699.16;5098866;27;45452;-79
2022/05/31 03:13:46;;;;;;;;;2.00;2.00;;;;;30.93;20.09;100690.50;5098566;27;45331;-80
2022/05/31 03:16:13;;;;;;;;;3.00;3.00;;;;;30.68;20.09;100652.94;5097707;27;45492;-80
2022/05/31 03:18:51;;;;;;;;;4.67;3.00;;;;;30.86;19.97;100679.06;5097247;27;45468;-80
2022/05/31 03:21:23;;;;;;;;;3.67;3.00;;;;;30.88;20.19;100676.22;5098804;27;45514;-80
2022/05/31 03:24:01;;;;;;;;;1.33;1.33;;;;;30.84;20.02;100671.94;5098227;27;45314;-80
2022/05/31 03:26:30;;;;;;;;;4.00;3.00;;;;;30.99;19.74;100686.47;5098930;27;45410;-80
2022/05/31 03:28:56;;;;;;;;;3.67;3.67;;;;;30.94;20.11;100671.22;5097329;27;45374;-80
2022/05/31 03:31:22;;;;;;;;;4.33;3.00;;;;;30.84;20.09;100650.03;5098521;27;45367;-80
2022/05/31 03:33:47;;;;;;;;;4.00;4.00;;;;;30.82;19.88;100633.69;5098259;27;45386;-82
2022/05/31 03:36:14;;;;;;;;;3.00;3.00;;;;;30.94;20.20;100652.03;5097548;27;45468;-80
2022/05/31 03:38:39;;;;;;;;;3.00;3.00;;;;;31.02;20.11;100689.91;5098088;27;45631;-80
2022/05/31 03:41:04;;;;;;;;;4.00;4.00;;;;;30.71;20.56;100658.19;5098449;27;45392;-80
2022/05/31 03:43:36;;;;;;;;;4.00;3.00;;;;;30.86;20.37;100705.56;5098307;27;45417;-80
2022/05/31 03:46:01;;;;;;;;;4.00;3.00;;;;;30.80;20.27;100706.88;5098611;27;45510;-80
2022/05/31 03:48:27;;;;;;;;;5.00;5.00;;;;;30.72;20.05;100698.31;5098255;27;45535;-80
2022/05/31 03:51:02;;;;;;;;;3.00;3.00;;;;;30.67;19.69;100690.38;5098175;27;46444;-80
2022/05/31 03:53:28;;;;;;;;;4.00;4.00;;;;;30.59;20.02;100681.78;5097978;27;45686;-80
2022/05/31 03:55:53;;;;;;;;;3.33;3.33;;;;;30.60;20.22;100669.88;5098281;27;45977;-79
2022/05/31 03:58:19;;;;;;;;;4.00;4.00;;;;;30.44;20.06;100639.91;5098270;27;45689;-79
2022/05/31 04:00:46;;;;;;;;;4.00;4.00;;;;;30.70;20.14;100681.94;5097780;27;46369;-79
2022/05/31 04:03:11;;;;;;;;;4.00;4.00;;;;;30.57;19.97;100668.19;5098219;27;45399;-78
2022/05/31 04:05:36;;;;;;;;;4.00;3.00;;;;;30.71;20.23;100677.38;5098000;27;45423;-79
2022/05/31 04:08:10;;;;;;;;;4.00;4.00;;;;;30.81;20.28;100692.19;5096422;27;45373;-79
2022/05/31 04:10:37;;;;;;;;;5.00;3.67;;;;;30.67;19.73;100682.16;5097666;27;45752;-79
2022/05/31 04:13:03;;;;;;;;;4.67;4.67;;;;;30.70;20.01;100689.28;5097818;27;45307;-81
2022/05/31 04:15:29;;;;;;;;;6.00;5.00;;;;;30.68;20.35;100678.44;5096550;27;45405;-80
2022/05/31 04:17:55;;;;;;;;;4.00;4.00;;;;;30.80;20.17;100698.66;5097623;27;45431;-80
2022/05/31 04:20:21;;;;;;;;;6.00;5.00;;;;;30.77;20.05;100682.41;5097357;27;46240;-79
2022/05/31 04:22:46;;;;;;;;;3.33;3.33;;;;;30.68;19.92;100672.09;5097504;27;45440;-80
2022/05/31 04:25:12;;;;;;;;;5.00;5.00;;;;;30.78;20.05;100701.50;5097942;27;45409;-79
2022/05/31 04:27:37;;;;;;;;;4.00;4.00;;;;;30.64;20.00;100674.16;5097409;27;45520;-79
2022/05/31 04:30:03;;;;;;;;;4.67;4.00;;;;;30.79;20.10;100686.81;5096275;27;48267;-79
2022/05/31 04:32:29;;;;;;;;;4.00;4.00;;;;;30.74;20.37;100675.28;5097306;27;45303;-79
2022/05/31 04:34:54;;;;;;;;;3.00;3.00;;;;;30.95;20.24;100691.25;5097296;27;45326;-79
2022/05/31 04:37:21;;;;;;;;;3.00;3.00;;;;;31.00;19.80;100694.59;5096258;27;45536;-79
2022/05/31 04:39:46;;;;;;;;;4.00;4.00;;;;;30.95;20.02;100677.56;5097221;27;46715;-79
2022/05/31 04:42:12;;;;;;;;;3.00;3.00;;;;;30.90;20.18;100682.47;5097257;27;45427;-82
2022/05/31 04:44:37;;;;;;;;;4.00;3.33;;;;;30.89;20.40;100688.94;5096000;27;45341;-79
2022/05/31 04:47:05;;;;;;;;;5.00;4.33;;;;;30.82;20.06;100684.88;5095937;27;45346;-79
2022/05/31 04:49:30;;;;;;;;;4.67;4.67;;;;;30.80;20.00;100674.00;5096858;27;45409;-79
2022/05/31 04:51:55;;;;;;;;;4.00;4.00;;;;;30.89;20.32;100691.69;5095619;27;45419;-79
2022/05/31 04:54:24;;;;;;;;;4.00;4.00;;;;;30.80;20.15;100654.81;5097110;27;45346;-78
2022/05/31 04:56:49;;;;;;;;;4.67;3.67;;;;;31.07;20.12;100703.28;5097002;27;45496;-79
2022/05/31 04:59:17;;;;;;;;;4.00;4.00;;;;;31.00;19.88;100689.09;5095680;27;48279;-78
2022/05/31 05:01:42;;;;;;;;;4.33;4.33;;;;;30.97;20.34;100689.31;5096757;27;45479;-77
2022/05/31 05:04:08;;;;;;;;;5.00;5.00;;;;;30.99;20.13;100695.56;5096835;27;45793;-79
2022/05/31 05:06:33;;;;;;;;;5.00;5.00;;;;;31.05;19.78;100697.91;5096735;27;45611;-79
2022/05/31 05:08:58;;;;;;;;;8.00;5.00;;;;;31.00;19.78;100689.09;5096608;27;46451;-79
2022/05/31 05:11:24;;;;;;;;;4.67;4.00;;;;;30.97;20.29;100689.31;5096690;27;45529;-79
2022/05/31 05:13:50;;;;;;;;;4.67;4.00;;;;;31.06;19.94;100710.63;5096597;27;45374;-78
2022/05/31 05:16:16;;;;;;;;;5.00;5.00;;;;;31.06;20.10;100702.41;5095526;27;45565;-78
2022/05/31 05:18:42;;;;;;;;;6.00;3.67;;;;;31.15;19.75;100725.56;5095691;27;45414;-78
2022/05/31 05:21:10;;;;;;;;;6.00;5.67;;;;;31.06;20.00;100724.31;5096721;27;45479;-76
2022/05/31 05:23:36;;;;;;;;;4.00;4.00;;;;;31.15;19.35;100728.28;5095846;27;45435;-80
2022/05/31 05:26:03;;;;;;;;;6.33;4.67;;;;;31.16;19.68;100726.44;5096824;27;45331;-80
2022/05/31 05:31:27;;;;;;;;;5.33;4.00;;;;;31.19;19.35;100707.91;5117232;27;45383;-79
2022/05/31 05:33:55;;;;;;;;;5.67;5.67;;;;;31.22;19.40;100690.38;5113505;27;45507;-81
2022/05/31 05:36:21;;;;;;;;;5.00;4.00;;;;;31.31;19.30;100711.69;5095516;27;45466;-83
2022/05/31 05:38:47;;;;;;;;;5.67;5.33;;;;;31.22;19.74;100734.25;5096244;27;45450;-83
2022/05/31 05:41:12;;;;;;;;;4.50;4.50;;;;;31.27;19.59;100743.03;5096585;27;45502;-79
2022/05/31 05:43:40;;;;;;;;;5.00;4.00;;;;;31.10;19.09;100717.66;5095871;27;45419;-83
2022/05/31 05:46:12;;;;;;;;;7.00;6.00;;;;;30.98;19.74;100679.22;5095146;27;45644;-82
2022/05/31 05:48:38;;;;;;;;;5.00;5.00;;;;;31.32;19.11;100713.44;5094517;27;48612;-79
2022/05/31 05:51:13;;;;;;;;;4.33;4.33;;;;;31.48;19.64;100730.56;5111711;27;45865;-77
2022/05/31 05:53:38;;;;;;;;;5.00;3.67;;;;;31.32;19.55;100707.94;5105754;27;45441;-81
2022/05/31 05:56:03;;;;;;;;;4.67;4.67;;;;;31.42;19.60;100713.66;5104399;27;45609;-80
2022/05/31 05:58:29;;;;;;;;;5.33;5.33;;;;;31.47;19.30;100734.28;5095716;27;46187;-80
2022/05/31 06:00:54;;;;;;;;;5.67;5.00;;;;;31.50;19.41;100733.22;5088211;27;45450;-80
2022/05/31 06:03:37;;;;;;;;;5.00;4.00;;;;;31.68;18.84;100752.16;5095677;27;45453;-80
2022/05/31 06:06:03;;;;;;;;;6.00;5.33;;;;;31.56;19.08;100742.88;5096491;27;45586;-80
2022/05/31 06:08:36;;;;;;;;;5.33;5.33;;;;;31.69;18.94;100749.31;5088952;27;46504;-80
2022/05/31 06:11:22;;;;;;;;;5.00;4.00;;;;;31.79;19.50;100753.16;5077475;27;45506;-80
2022/05/31 06:13:55;;;;;;;;;5.00;4.00;;;;;31.84;19.14;100740.97;5093984;27;45487;-80
2022/05/31 06:16:26;;;;;;;;;6.67;5.67;;;;;31.98;19.52;100750.00;5095105;27;45506;-79
2022/05/31 06:19:14;;;;;;;;;8.67;5.33;;;;;32.04;19.21;100742.28;5093513;27;47132;-80
2022/05/31 06:21:39;;;;;;;;;4.33;4.33;;;;;31.94;19.60;100715.53;5095503;27;45376;-84
2022/05/31 06:24:05;;;;;;;;;5.00;5.00;;;;;32.05;19.21;100722.97;5095614;27;45394;-81
2022/05/31 06:26:32;;;;;;;;;4.00;4.00;;;;;32.23;19.27;100756.47;5095961;27;45460;-79
2022/05/31 06:28:57;;;;;;;;;5.00;5.00;;;;;32.07;19.18;100726.50;5095012;27;46275;-78
2022/05/31 06:31:22;;;;;;;;;5.00;4.67;;;;;32.18;19.22;100750.47;5095108;27;45291;-79
2022/05/31 06:33:47;;;;;;;;;4.00;4.00;;;;;32.24;18.54;100763.72;5095125;27;45421;-80
2022/05/31 06:36:14;;;;;;;;;3.00;3.00;;;;;32.04;18.63;100743.19;5091597;27;45487;-80
2022/05/31 06:38:40;;;;;;;;;2.00;2.00;;;;;32.05;18.91;100753.16;5096902;27;45522;-80
2022/05/31 06:41:06;;;;;;;;;6.00;5.33;;;;;32.05;18.41;100739.44;5096007;27;45515;-82
2022/05/31 06:43:31;;;;;;;;;4.67;4.67;;;;;32.15;18.31;100742.41;5098253;27;45406;-80
2022/05/31 06:45:57;;;;;;;;;7.00;7.00;;;;;31.99;18.67;100732.50;5097374;27;45623;-80
2022/05/31 06:48:22;;;;;;;;;5.67;4.67;;;;;32.14;19.02;100737.94;5097305;27;45635;-80
2022/05/31 06:50:47;;;;;;;;;4.67;4.67;;;;;32.14;18.92;100737.94;5097002;27;45450;-79
2022/05/31 06:58:42;;;;;;;;;6.67;5.00;;;;;32.22;18.69;100742.84;5097941;27;45747;-79
2022/05/31 07:01:07;;;;;;;;;6.00;4.00;;;;;32.32;18.09;100747.56;5097322;27;45886;-79
2022/05/31 07:03:33;;;;;;;;;6.33;5.00;;;;;32.55;18.19;100763.38;5097924;27;45451;-79
2022/05/31 07:05:59;;;;;;;;;5.00;5.00;;;;;32.59;17.99;100753.91;5096089;27;45481;-78
2022/05/31 07:08:25;;;;;;;;;6.00;6.00;;;;;32.61;18.00;100757.41;5097262;27;45514;-79
2022/05/31 07:10:51;;;;;;;;;6.00;4.00;;;;;32.69;18.11;100754.09;5097636;27;45383;-79
2022/05/31 07:13:17;;;;;;;;;4.33;4.33;;;;;32.70;17.89;100750.38;5113732;27;45333;-78
2022/05/31 07:15:42;;;;;;;;;5.67;5.00;;;;;32.85;18.22;100754.72;5107632;27;45358;-78
2022/05/31 07:18:08;;;;;;;;;4.33;4.33;;;;;32.95;18.21;100769.53;5097769;27;45593;-79
2022/05/31 07:20:33;;;;;;;;;5.67;5.00;;;;;32.90;18.33;100769.00;5096823;27;45452;-78
2022/05/31 07:22:59;;;;;;;;;4.67;4.67;;;;;32.99;17.72;100761.94;5095619;27;45441;-78
2022/05/31 07:25:24;;;;;;;;;5.67;4.33;;;;;33.07;17.93;100759.47;5099925;27;45461;-79
2022/05/31 07:27:50;;;;;;;;;6.00;5.00;;;;;33.13;17.82;100759.00;5100100;27;46153;-76
2022/05/31 07:30:16;;;;;;;;;6.33;5.00;;;;;33.00;18.15;100747.22;5099629;27;45445;-77
2022/05/31 07:32:42;;;;;;;;;5.00;5.00;;;;;33.17;17.97;100757.78;5096957;27;45944;-78
2022/05/31 07:35:07;;;;;;;;;6.00;5.00;;;;;33.25;17.96;100762.72;5097507;27;45482;-78
2022/05/31 07:37:33;;;;;;;;;6.00;5.00;;;;;33.43;17.27;100776.94;5097524;27;46237;-78
2022/05/31 07:39:58;;;;;;;;;4.00;3.67;;;;;33.23;17.04;100741.84;5098305;27;45413;-78
2022/05/31 07:42:23;;;;;;;;;9.00;5.67;;;;;33.18;18.14;100761.41;5113137;27;45555;-79
2022/05/31 07:44:53;;;;;;;;;6.00;6.00;;;;;33.02;17.79;100761.69;5096545;27;45629;-78
2022/05/31 07:47:18;;;;;;;;;5.00;5.00;;;;;33.02;17.73;100778.19;5094987;27;48260;-78
2022/05/31 07:49:44;;;;;;;;;4.00;4.00;;;;;33.07;18.03;100766.88;5112390;27;45350;-81
2022/05/31 07:52:10;;;;;;;;;7.00;5.00;;;;;33.11;18.04;100749.16;5096768;27;45460;-80
2022/05/31 07:54:36;;;;;;;;;5.67;4.67;;;;;33.02;17.21;100761.69;5095961;27;45428;-81
2022/05/31 07:57:05;;;;;;;;;4.67;4.33;;;;;33.20;17.76;100762.16;5098281;27;45569;-79
2022/05/31 07:59:32;;;;;;;;;5.00;3.33;;;;;33.32;17.81;100760.41;5095088;27;45549;-79
2022/05/31 08:01:57;;;;;;;;;5.67;5.00;;;;;33.28;17.77;100772.63;5096687;27;45369;-81
2022/05/31 08:04:22;;;;;;;;;5.00;4.67;;;;;33.21;17.62;100768.53;5112396;27;45584;-81
2022/05/31 08:06:48;;;;;;;;;5.00;4.00;;;;;33.26;17.41;100780.09;5096959;27;45385;-80
2022/05/31 08:09:13;;;;;;;;;4.00;4.00;;;;;33.08;17.12;100764.00;5095050;27;45567;-80
2022/05/31 08:11:39;;;;;;;;;7.00;5.00;;;;;33.12;17.18;100762.78;5096601;27;45526;-81
2022/05/31 08:14:04;;;;;;;;;6.00;5.00;;;;;33.04;17.18;100748.72;5096182;27;45497;-81
2022/05/31 08:16:30;;;;;;;;;5.33;5.33;;;;;33.12;17.18;100757.28;5103095;27;45471;-81
2022/05/31 08:18:56;;;;;;;;;6.33;4.00;;;;;33.34;16.98;100780.38;5095834;27;45466;-81
2022/05/31 08:21:28;;;;;;;;;5.00;5.00;;;;;33.18;17.13;100758.69;5096496;27;45489;-81
2022/05/31 08:23:55;;;;;;;;;7.67;7.67;;;;;33.19;17.35;100774.16;5095510;27;45692;-80
2022/05/31 08:26:21;;;;;;;;;4.33;4.33;;;;;33.15;17.60;100753.38;5094303;27;47697;-78
2022/05/31 08:28:46;;;;;;;;;8.00;6.67;;;;;33.22;17.07;100756.53;5095523;27;45385;-78
2022/05/31 08:31:16;;;;;;;;;6.00;6.00;;;;;33.13;17.76;100759.00;5099843;27;45425;-77
2022/05/31 08:33:42;;;;;;;;;4.67;4.67;;;;;33.30;17.88;100781.63;5086077;27;45461;-77
2022/05/31 08:36:08;;;;;;;;;5.67;4.67;;;;;33.30;17.44;100781.63;5092595;27;45424;-77
2022/05/31 08:38:33;;;;;;;;;7.33;6.33;;;;;33.28;17.47;100786.38;5094874;27;45499;-77
2022/05/31 08:41:16;;;;;;;;;10.00;6.33;;;;;33.22;17.13;100790.44;5094832;27;45370;-78
2022/05/31 08:43:47;;;;;;;;;6.00;6.00;;;;;33.10;17.39;100786.72;5096320;27;45467;-77
2022/05/31 08:46:36;;;;;;;;;6.67;6.67;;;;;33.06;17.19;100768.72;5099702;27;46518;-77
2022/05/31 08:49:16;;;;;;;;;7.00;5.00;;;;;33.10;17.42;100783.97;5094480;27;45485;-78
2022/05/31 08:52:05;;;;;;;;;9.00;7.00;;;;;32.86;17.48;100772.09;5096394;27;45451;-78
2022/05/31 08:57:38;;;;;;;;;8.67;6.33;;;;;32.76;17.72;100791.16;5101684;27;46000;-78
2022/05/31 09:00:07;;;;;;;;;6.67;5.00;;;;;32.82;17.35;100788.78;5095937;27;45503;-78
2022/05/31 09:02:44;;;;;;;;;6.00;6.00;;;;;32.82;17.77;100788.78;5099985;27;45523;-78
2022/05/31 09:05:16;;;;;;;;;7.00;6.00;;;;;32.62;17.73;100775.66;5095911;27;45442;-78
2022/05/31 09:07:59;;;;;;;;;6.00;6.00;;;;;32.58;17.96;100774.13;5092051;27;45474;-76
2022/05/31 09:10:34;;;;;;;;;6.67;6.67;;;;;32.54;17.81;100784.44;5095448;27;45486;-75
2022/05/31 09:13:09;;;;;;;;;5.33;5.00;;;;;32.77;17.27;100780.03;5095338;27;45422;-76
2022/05/31 09:15:55;;;;;;;;;7.33;6.00;;;;;32.80;17.80;100774.31;5095284;27;45376;-76
2022/05/31 09:18:40;;;;;;;;;6.67;6.67;;;;;32.82;17.49;100796.16;5095628;27;46661;-75
2022/05/31 09:21:16;;;;;;;;;6.00;6.00;;;;;32.75;17.78;100790.25;5116460;27;45765;-76
2022/05/31 09:23:42;;;;;;;;;4.67;4.67;;;;;32.80;17.93;100785.31;5095424;27;45407;-76
2022/05/31 09:26:40;;;;;;;;;6.00;5.00;;;;;32.93;18.12;100789.88;5101516;27;45429;-76
2022/05/31 09:29:21;;;;;;;;;7.67;6.33;;;;;32.98;17.54;100784.91;5095364;27;46630;-76
2022/05/31 09:32:04;;;;;;;;;7.00;7.00;;;;;32.92;17.95;100791.75;5095242;27;45590;-75
2022/05/31 09:34:45;;;;;;;;;5.67;5.67;;;;;33.02;17.48;100788.31;5094258;27;45474;-75
2022/05/31 09:37:47;;;;;;;;;3.33;3.33;;;;;33.10;17.61;100797.72;5094089;27;45432;-76
2022/05/31 09:40:33;;;;;;;;;5.33;5.33;;;;;33.34;17.28;100797.75;5096078;27;46218;-77
2022/05/31 09:43:08;;;;;;;;;2.67;2.67;;;;;33.34;17.06;100784.00;5110750;27;46038;-76
2022/05/31 09:45:38;;;;;;;;;5.67;4.67;;;;;33.33;16.87;100779.53;5096449;27;45422;-76
2022/05/31 09:48:04;;;;;;;;;3.67;3.67;;;;;33.36;16.65;100783.88;5096402;27;45452;-76
2022/05/31 09:50:31;;;;;;;;;3.00;3.00;;;;;33.26;17.18;100764.47;5111500;27;45503;-76
2022/05/31 09:52:57;;;;;;;;;4.33;4.33;;;;;33.39;17.21;100780.03;5117004;27;45416;-76
2022/05/31 09:58:30;;;;;;;;;3.00;3.00;;;;;33.62;16.63;100783.75;5109169;27;45419;-76
2022/05/31 10:01:14;;;;;;;;;3.00;3.00;;;;;33.78;16.14;100777.94;5096147;27;45443;-77
2022/05/31 10:03:51;;;;;;;;;5.67;4.00;;;;;33.68;15.79;100762.16;5095777;27;45420;-77
2022/05/31 10:06:27;;;;;;;;;5.00;4.67;;;;;33.57;16.70;100772.22;5096483;27;45419;-78
2022/05/31 10:08:54;;;;;;;;;4.00;4.00;;;;;33.69;16.16;100765.78;5093315;27;45482;-79
2022/05/31 10:11:33;;;;;;;;;4.33;4.00;;;;;33.88;16.07;100767.97;5095323;27;46420;-78
2022/05/31 10:14:19;;;;;;;;;3.33;3.00;;;;;34.14;15.83;100781.53;5092760;27;45593;-78
2022/05/31 10:16:47;;;;;;;;;5.00;4.00;;;;;34.31;16.07;100749.91;5095474;27;45322;-77
2022/05/31 10:19:29;;;;;;;;;3.33;3.00;;;;;34.17;15.74;100734.47;5095938;27;45448;-76
2022/05/31 10:21:56;;;;;;;;;4.00;3.00;;;;;34.42;15.09;100773.84;5095648;27;46624;-77
2022/05/31 10:24:24;;;;;;;;;4.00;4.00;;;;;34.58;14.84;100768.78;5095560;27;45530;-78
2022/05/31 10:27:12;;;;;;;;;3.00;3.00;;;;;34.82;15.20;100762.28;5095575;27;45419;-77
2022/05/31 10:29:59;;;;;;;;;2.00;2.00;;;;;34.85;15.17;100776.69;5095968;27;45493;-77
2022/05/31 10:32:29;;;;;;;;;2.33;2.33;;;;;34.75;14.97;100739.84;5095206;27;45957;-78
2022/05/31 10:35:08;;;;;;;;;3.00;3.00;;;;;34.97;15.16;100749.09;5095407;27;45377;-78
2022/05/31 10:37:34;;;;;;;;;2.67;2.67;;;;;34.96;14.71;100762.00;5095117;27;45524;-78
2022/05/31 10:40:02;;;;;;;;;2.00;2.00;;;;;34.85;14.63;100762.91;5095577;27;45395;-78
2022/05/31 10:42:28;;;;;;;;;1.00;1.00;;;;;34.38;13.46;100759.41;5095133;27;46429;-78
2022/05/31 10:44:58;;;;;;;;;4.00;3.00;;;;;34.23;14.13;100757.88;5095003;27;45416;-78
2022/05/31 10:47:26;;;;;;;;;3.67;2.33;;;;;34.29;13.56;100752.78;5095475;27;45420;-78
2022/05/31 10:49:51;;;;;;;;;1.33;1.33;;;;;34.46;13.59;100756.91;5095361;27;45282;-78
2022/05/31 10:52:49;;;;;;;;;2.00;2.00;;;;;34.59;13.85;100753.16;5110921;27;47754;-78
2022/05/31 10:55:36;;;;;;;;;1.00;1.00;;;;;34.53;14.00;100754.53;5095327;27;45449;-78
2022/05/31 10:58:26;;;;;;;;;2.00;2.00;;;;;34.44;13.49;100764.41;5092070;27;45411;-78
2022/05/31 11:00:55;;;;;;;;;2.00;1.67;;;;;34.53;14.27;100766.44;5095274;27;45251;-78
2022/05/31 11:03:45;;;;;;;;;2.00;2.00;;;;;34.40;13.87;100756.53;5095039;27;45533;-78
2022/05/31 11:06:37;;;;;;;;;1.00;1.00;;;;;34.51;14.61;100770.31;5095469;27;45495;-78
2022/05/31 11:12:12;;;;;;;;;2.00;2.00;;;;;34.59;14.53;100765.03;5094983;27;45395;-82
2022/05/31 11:15:15;;;;;;;;;2.33;1.00;;;;;34.47;14.61;100741.25;5094292;27;45386;-79
2022/05/31 11:18:09;;;;;;;;;2.00;2.00;;;;;34.58;13.99;100759.66;5086940;27;45529;-77
2022/05/31 11:21:06;;;;;;;;;4.00;2.67;;;;;34.70;14.25;100734.72;5095540;27;45475;-77
2022/05/31 11:23:39;;;;;;;;;4.67;4.67;;;;;34.60;14.73;100743.88;5054503;28;45463;-79
2022/05/31 11:26:24;;;;;;;;;4.00;4.00;;;;;34.81;14.03;100761.41;5074114;28;46148;-79
2022/05/31 11:29:08;;;;;;;;;3.67;3.67;;;;;34.91;14.53;100763.38;5067410;28;45552;-79
2022/05/31 11:31:48;;;;;;;;;5.00;2.00;;;;;34.74;13.80;100759.25;5053997;28;45546;-79
2022/05/31 11:34:29;;;;;;;;;3.33;1.00;;;;;34.61;14.45;100773.19;5054044;28;45440;-78
2022/05/31 11:37:10;;;;;;;;;2.00;2.00;;;;;34.47;14.05;100771.56;5052583;28;46194;-79
2022/05/31 11:39:44;;;;;;;;;2.33;2.33;;;;;34.28;13.86;100772.16;5071465;28;45483;-79
2022/05/31 11:42:34;;;;;;;;;2.00;2.00;;;;;34.24;13.81;100777.03;5067739;28;45468;-78
2022/05/31 11:45:19;;;;;;;;;4.00;2.00;;;;;34.02;14.40;100786.13;5053545;28;45669;-79
2022/05/31 11:48:26;;;;;;;;;4.33;2.00;;;;;34.19;14.38;100780.16;5036447;28;48443;-78
2022/05/31 11:51:19;;;;;;;;;2.00;2.00;;;;;34.33;14.05;100780.94;5052829;28;45546;-79
2022/05/31 11:54:18;;;;;;;;;1.33;1.33;;;;;34.17;14.25;100726.22;5053722;28;45436;-78
2022/05/31 11:56:59;;;;;;;;;3.33;1.00;;;;;34.71;13.92;100779.66;5033941;28;45598;-78
2022/05/31 11:59:34;;;;;;;;;2.00;2.00;;;;;34.71;14.14;100768.66;5055578;28;46311;-79
2022/05/31 12:02:16;;;;;;;;;2.00;2.00;;;;;34.48;14.00;100778.81;5117307;27;45513;-79